Impacts METAR Board
IDs:

KMIA - Miami Intl, FL, US

Updated at: 1000 UTC 18 Jan 2019
Potential Impact None Slight Moderate High
Time 17/22Z 17/23Z 18/00Z 18/01Z 18/02Z 18/03Z 18/04Z 18/05Z 18/06Z 18/07Z 18/08Z 18/09Z 18/10Z
Temp75 71 71 70 70 67 67 65 64 65 63 63 62
Dewpt61 61 63 63 63 63 63 63 62 62 60 60 57
Altim30.14 30.14 30.16 30.17 30.18 30.18 30.18 30.17 30.17 30.16 30.15 30.14 30.14
VIS10 10 10 10 10 10 10 10 10 10 10 10 10
CIG250 250 -- -- -- -- -- -- -- -- -- -- --
CoverBKNBKNSCTSCTSCTFEWFEWCLRFEWFEWSCTFEWFEW
FltCatVFRVFRVFRVFRVFRVFRVFRVFRVFRVFRVFRVFRVFR
WX--------------------------
WDir11013013001200027031029000330
WSpd7 6 4 0 5 0 0 4 4 3 0 0 3
WGst-- -- -- -- -- -- -- -- -- -- -- -- --
Raw hourly METARs
KMIA 172153Z 11007KT 10SM FEW037 SCT070 BKN250 24/16 A3014 RMK AO2 SLP207 T02390161
KMIA 172253Z 13006KT 10SM FEW035 FEW065 BKN250 22/16 A3014 RMK AO2 SLP207 T02170161
KMIA 172353Z 13004KT 10SM FEW035 FEW070 SCT250 22/17 A3016 RMK AO2 SLP214 T02170172 10256 20211 53007
KMIA 180053Z 00000KT 10SM FEW035 SCT250 21/17 A3017 RMK AO2 SLP218 T02110172
KMIA 180153Z 12005KT 10SM FEW035 SCT250 21/17 A3018 RMK AO2 SLP220 T02110172
KMIA 180253Z 00000KT 10SM FEW035 FEW250 19/17 A3018 RMK AO2 SLP221 T01940172 51007
KMIA 180353Z 00000KT 10SM FEW035 19/17 A3018 RMK AO2 SLP220 T01940172
KMIA 180453Z 27004KT 10SM CLR 18/17 A3017 RMK AO2 SLP216 T01830172 402560139
KMIA 180553Z 31004KT 10SM FEW035 FEW050 18/17 A3017 RMK AO2 SLP215 T01780167 10217 20178 57005
KMIA 180653Z 29003KT 10SM FEW035 FEW045 18/17 A3016 RMK AO2 SLP211 T01830167
KMIA 180753Z 00000KT 10SM FEW038 SCT045 17/16 A3015 RMK AO2 SLP208 T01720156
KMIA 180853Z 00000KT 10SM FEW035 FEW045 17/16 A3014 RMK AO2 SLP206 T01720156 56009
KMIA 180953Z 33003KT 10SM FEW037 17/14 A3014 RMK AO2 SLP204 T01670139



Page loaded:  10:10 UTC  |   02:10 AM Pacific  |   03:10 AM Mountain  |   04:10 AM Central  |   05:10 AM Eastern

 

ADVISORIES

FORECASTS

FORECASTS

OBSERVATIONS

USER TOOLS

ABOUT US